Terminal Aerodrome Forecast
Issued by NWS

Home | Current Version | Previous Version | Graphics & Text | Print | Product List | Glossary Off
Versions: 1 2 3 4 5 6 7 8 9 10 11 12 13 14 15 16 17 18 19 20 21 22 23 24 25 26 27 28 29 30 31 32 33 34 35 36 37 38 39 40 41 42 43 44 45 46 47 48 49 50

256
FTUS43 KDDC 201509 AAB
TAFHYS
TAF AMD
KHYS 201509Z 2015/2112 00000KT 0SM FG OVC002
     FM201600 VRB04KT 1/2SM FG OVC003
     FM201700 VRB05KT 2SM BR OVC003
     FM201900 VRB06KT P6SM OVC008
     FM202000 VRB06KT P6SM OVC010
     FM210800 27008KT P6SM SCT130=

USA.gov is the U.S. government's official web portal to all federal, state and local government web resources and services.